Terminal Aerodrome Forecast
Issued by NWS North Platte, NE

Home | Current Version | Previous Version | Graphics & Text | Print | Product List | Glossary On
Versions: 1 2 3 4 5 6 7 8 9 10 11 12 13 14 15 16 17
359
FTUS43 KLBF 262324
TAFVTN
TAF
KVTN 262324Z 2700/2724 05011KT P6SM FEW250
     FM270300 02006KT P6SM VCTS SCT050 BKN110CB
     FM270500 36007KT P6SM -SHRA VCTS OVC050CB
     FM271200 01007KT P6SM VCSH OVC030
     FM271800 35010KT P6SM SCT030 BKN050=

USA.gov is the U.S. government's official web portal to all federal, state and local government web resources and services.